Pagrindinis puslapis
METAR-TAF:

METAR-TAF

Oro uostai :

Puerto Plata, Dominikos Respublika

platuma: 19-45N, ilguma: 070-33W, Aukštis: 15 m

Dabartinis oras

Ataskaita buvo paskelbta 36 minutes, ne 03:00 UTC
Ramus vėjas
Temperatūra 27°C
Drėgmė 89%
Slėgis 1014 hPa
Matomumas 10 km arba daugiau
Išsisklaidę debesys ne aukštis 1800 ft

METAR: MDPP 160300Z 00000KT 9999 SCT018 27/25 Q1014

Laikas: 23:36 (03:36 UTC)

Prognozė

Ataskaita buvo paskelbta 17 valandos ir 36 minutes, ne 10:00 UTC
Prognozė galioja nuo 15 metu 12 UTC su 16 metu 12 UTC
Vėjas kt iš Šiaurės
Matomumas 10 km arba daugiau
Išsisklaidę debesys ne aukštis 1800 ft
Tapsmas
nuo 15 metu 14 UTC su 15 metu 16 UTC
Vėjas 10 kt iš Rytų

TAF: MDPP 151000Z 1512/1612 00000KT 9999 SCT018 BECMG 1514/1516 09010KT

Orai ataskaitas ir orų prognozės (METAR, TAF).

turimą stotys yra geltonos ir raudonos taškus žemėlapyje.

Perkelti pele per norėdami pamatyti stoties vardą.

Tada spustelėkite, norėdami matyti oro stebėjimo ir prognozės.

Norėdami pakeisti žemėlapį: spustelėkite ant žalios mygtukų su juodo kryžiaus žemyn,; žalią mygtuką su brūkšneliu, jei norite nutolinti; arba žalių rodyklių gretimoms žemėlapius.


METAR-TAF: